Terminal Aerodrome Forecast
Issued by NWS Bismarck, ND

Home | Current Version | Previous Version | Graphics & Text | Print | Product List | Glossary On
Versions: 1 2 3 4 5 6 7 8 9 10 11 12 13 14 15
000
FTUS43 KBIS 151100
TAFBIS
TAF
KBIS 151120Z 1512/1612 15025G32KT P6SM FEW190 WS020/16050KT
     FM151600 18022G30KT P6SM SCT250
     FM152300 17012KT P6SM SCT250
     FM160300 24011KT P6SM BKN060
     FM160900 VRB05KT P6SM BKN035 OVC050=

USA.gov is the U.S. government's official web portal to all federal, state and local government web resources and services.